sensor_id;sensor_type;location;lat;lon;timestamp;P1;durP1;ratioP1;P2;durP2;ratioP2
13173;SDS011;6652;48.802;9.190;2023-04-15T00:00:17;16.88;;;4.40;;
13173;SDS011;6652;48.802;9.190;2023-04-15T00:02:44;14.40;;;4.45;;
13173;SDS011;6652;48.802;9.190;2023-04-15T00:05:12;10.70;;;4.57;;
13173;SDS011;6652;48.802;9.190;2023-04-15T00:07:39;13.82;;;4.90;;
13173;SDS011;6652;48.802;9.190;2023-04-15T00:10:06;8.68;;;4.18;;
13173;SDS011;6652;48.802;9.190;2023-04-15T00:12:33;12.48;;;3.83;;
13173;SDS011;6652;48.802;9.190;2023-04-15T00:15:00;17.83;;;3.80;;
13173;SDS011;6652;48.802;9.190;2023-04-15T00:17:29;10.95;;;3.67;;
13173;SDS011;6652;48.802;9.190;2023-04-15T00:19:56;12.43;;;4.25;;
13173;SDS011;6652;48.802;9.190;2023-04-15T00:22:23;10.95;;;3.40;;
13173;SDS011;6652;48.802;9.190;2023-04-15T00:24:51;14.90;;;4.00;;
13173;SDS011;6652;48.802;9.190;2023-04-15T00:27:18;14.15;;;4.20;;
13173;SDS011;6652;48.802;9.190;2023-04-15T00:29:45;12.35;;;4.07;;
13173;SDS011;6652;48.802;9.190;2023-04-15T00:32:12;11.40;;;4.30;;
13173;SDS011;6652;48.802;9.190;2023-04-15T00:34:40;11.85;;;4.43;;
13173;SDS011;6652;48.802;9.190;2023-04-15T00:37:07;16.10;;;5.18;;
13173;SDS011;6652;48.802;9.190;2023-04-15T00:39:34;16.25;;;4.80;;
13173;SDS011;6652;48.802;9.190;2023-04-15T00:42:01;15.27;;;5.20;;
13173;SDS011;6652;48.802;9.190;2023-04-15T00:44:29;12.63;;;4.45;;
13173;SDS011;6652;48.802;9.190;2023-04-15T00:46:57;14.35;;;4.90;;
13173;SDS011;6652;48.802;9.190;2023-04-15T00:49:25;15.77;;;4.88;;
13173;SDS011;6652;48.802;9.190;2023-04-15T00:51:54;14.80;;;4.75;;
13173;SDS011;6652;48.802;9.190;2023-04-15T00:54:21;10.73;;;4.75;;
13173;SDS011;6652;48.802;9.190;2023-04-15T00:56:47;19.92;;;4.82;;
13173;SDS011;6652;48.802;9.190;2023-04-15T00:59:14;14.20;;;4.53;;
13173;SDS011;6652;48.802;9.190;2023-04-15T01:01:43;18.65;;;5.03;;
13173;SDS011;6652;48.802;9.190;2023-04-15T01:04:11;14.40;;;5.03;;
13173;SDS011;6652;48.802;9.190;2023-04-15T01:06:38;9.73;;;4.05;;
13173;SDS011;6652;48.802;9.190;2023-04-15T01:09:06;13.07;;;4.70;;
13173;SDS011;6652;48.802;9.190;2023-04-15T01:11:33;12.60;;;4.72;;
13173;SDS011;6652;48.802;9.190;2023-04-15T01:14:00;11.40;;;5.18;;
13173;SDS011;6652;48.802;9.190;2023-04-15T01:16:28;11.95;;;4.80;;
13173;SDS011;6652;48.802;9.190;2023-04-15T01:18:55;13.57;;;5.20;;
13173;SDS011;6652;48.802;9.190;2023-04-15T01:21:22;13.15;;;4.75;;
13173;SDS011;6652;48.802;9.190;2023-04-15T01:23:49;15.45;;;5.82;;
13173;SDS011;6652;48.802;9.190;2023-04-15T01:26:19;15.27;;;5.18;;
13173;SDS011;6652;48.802;9.190;2023-04-15T01:28:47;16.83;;;5.13;;
13173;SDS011;6652;48.802;9.190;2023-04-15T01:31:14;12.95;;;4.90;;
13173;SDS011;6652;48.802;9.190;2023-04-15T01:33:42;12.20;;;5.28;;
13173;SDS011;6652;48.802;9.190;2023-04-15T01:36:09;15.95;;;6.35;;
13173;SDS011;6652;48.802;9.190;2023-04-15T01:38:36;10.70;;;5.03;;
13173;SDS011;6652;48.802;9.190;2023-04-15T01:41:03;10.23;;;4.55;;
13173;SDS011;6652;48.802;9.190;2023-04-15T01:43:33;10.98;;;5.00;;
13173;SDS011;6652;48.802;9.190;2023-04-15T01:46:00;14.98;;;4.90;;
13173;SDS011;6652;48.802;9.190;2023-04-15T01:48:27;11.48;;;4.68;;
13173;SDS011;6652;48.802;9.190;2023-04-15T01:50:53;16.75;;;5.43;;
13173;SDS011;6652;48.802;9.190;2023-04-15T01:53:22;13.80;;;4.47;;
13173;SDS011;6652;48.802;9.190;2023-04-15T01:55:49;18.67;;;5.10;;
13173;SDS011;6652;48.802;9.190;2023-04-15T01:58:16;18.48;;;6.65;;
13173;SDS011;6652;48.802;9.190;2023-04-15T02:00:44;11.82;;;4.90;;
13173;SDS011;6652;48.802;9.190;2023-04-15T02:03:11;15.75;;;5.25;;
13173;SDS011;6652;48.802;9.190;2023-04-15T02:05:38;10.63;;;5.50;;
13173;SDS011;6652;48.802;9.190;2023-04-15T02:08:05;12.80;;;5.32;;
13173;SDS011;6652;48.802;9.190;2023-04-15T02:10:32;22.95;;;5.78;;
13173;SDS011;6652;48.802;9.190;2023-04-15T02:12:59;16.52;;;5.90;;
13173;SDS011;6652;48.802;9.190;2023-04-15T02:15:26;11.45;;;5.45;;
13173;SDS011;6652;48.802;9.190;2023-04-15T02:17:54;16.58;;;5.57;;
13173;SDS011;6652;48.802;9.190;2023-04-15T02:20:21;14.35;;;5.18;;
13173;SDS011;6652;48.802;9.190;2023-04-15T02:22:48;17.27;;;5.63;;
13173;SDS011;6652;48.802;9.190;2023-04-15T02:25:16;20.55;;;6.15;;
13173;SDS011;6652;48.802;9.190;2023-04-15T02:27:44;15.00;;;5.88;;
13173;SDS011;6652;48.802;9.190;2023-04-15T02:30:11;15.77;;;6.55;;
13173;SDS011;6652;48.802;9.190;2023-04-15T02:32:38;16.73;;;6.05;;
13173;SDS011;6652;48.802;9.190;2023-04-15T02:35:10;13.40;;;5.63;;
13173;SDS011;6652;48.802;9.190;2023-04-15T02:37:37;16.67;;;5.72;;
13173;SDS011;6652;48.802;9.190;2023-04-15T02:40:07;19.25;;;5.63;;
13173;SDS011;6652;48.802;9.190;2023-04-15T02:42:36;13.45;;;5.60;;
13173;SDS011;6652;48.802;9.190;2023-04-15T02:45:03;17.73;;;5.85;;
13173;SDS011;6652;48.802;9.190;2023-04-15T02:47:31;16.92;;;5.88;;
13173;SDS011;6652;48.802;9.190;2023-04-15T02:49:58;15.45;;;5.70;;
13173;SDS011;6652;48.802;9.190;2023-04-15T02:52:27;11.93;;;5.53;;
13173;SDS011;6652;48.802;9.190;2023-04-15T02:54:54;12.85;;;5.13;;
13173;SDS011;6652;48.802;9.190;2023-04-15T02:57:24;13.70;;;5.80;;
13173;SDS011;6652;48.802;9.190;2023-04-15T02:59:52;13.38;;;6.03;;
13173;SDS011;6652;48.802;9.190;2023-04-15T03:02:19;14.10;;;5.60;;
13173;SDS011;6652;48.802;9.190;2023-04-15T03:04:46;16.80;;;6.15;;
13173;SDS011;6652;48.802;9.190;2023-04-15T03:07:13;14.90;;;6.00;;
13173;SDS011;6652;48.802;9.190;2023-04-15T03:09:41;14.23;;;5.30;;
13173;SDS011;6652;48.802;9.190;2023-04-15T03:12:08;16.52;;;5.97;;
13173;SDS011;6652;48.802;9.190;2023-04-15T03:14:35;15.00;;;4.97;;
13173;SDS011;6652;48.802;9.190;2023-04-15T03:17:02;18.58;;;6.45;;
13173;SDS011;6652;48.802;9.190;2023-04-15T03:19:29;20.85;;;6.65;;
13173;SDS011;6652;48.802;9.190;2023-04-15T03:21:56;15.45;;;6.03;;
13173;SDS011;6652;48.802;9.190;2023-04-15T03:24:23;13.95;;;5.65;;
13173;SDS011;6652;48.802;9.190;2023-04-15T03:26:51;16.05;;;6.18;;
13173;SDS011;6652;48.802;9.190;2023-04-15T03:29:19;15.98;;;5.35;;
13173;SDS011;6652;48.802;9.190;2023-04-15T03:31:45;15.10;;;5.60;;
13173;SDS011;6652;48.802;9.190;2023-04-15T03:34:12;17.90;;;6.78;;
13173;SDS011;6652;48.802;9.190;2023-04-15T03:36:39;18.25;;;6.95;;
13173;SDS011;6652;48.802;9.190;2023-04-15T03:39:06;12.63;;;5.53;;
13173;SDS011;6652;48.802;9.190;2023-04-15T03:41:33;14.68;;;6.50;;
13173;SDS011;6652;48.802;9.190;2023-04-15T03:44:01;16.13;;;6.85;;
13173;SDS011;6652;48.802;9.190;2023-04-15T03:46:28;18.63;;;6.57;;
13173;SDS011;6652;48.802;9.190;2023-04-15T03:48:55;23.58;;;6.30;;
13173;SDS011;6652;48.802;9.190;2023-04-15T03:51:22;24.48;;;8.15;;
13173;SDS011;6652;48.802;9.190;2023-04-15T03:53:48;17.98;;;6.70;;
13173;SDS011;6652;48.802;9.190;2023-04-15T03:56:15;20.60;;;7.30;;
13173;SDS011;6652;48.802;9.190;2023-04-15T03:58:42;20.33;;;6.75;;
13173;SDS011;6652;48.802;9.190;2023-04-15T04:01:10;18.48;;;6.78;;
13173;SDS011;6652;48.802;9.190;2023-04-15T04:03:37;20.02;;;6.93;;
13173;SDS011;6652;48.802;9.190;2023-04-15T04:06:04;14.30;;;6.20;;
13173;SDS011;6652;48.802;9.190;2023-04-15T04:08:32;16.88;;;6.50;;
13173;SDS011;6652;48.802;9.190;2023-04-15T04:10:58;18.02;;;7.20;;
13173;SDS011;6652;48.802;9.190;2023-04-15T04:13:25;17.48;;;7.32;;
13173;SDS011;6652;48.802;9.190;2023-04-15T04:15:52;28.60;;;6.75;;
13173;SDS011;6652;48.802;9.190;2023-04-15T04:18:20;25.23;;;7.40;;
13173;SDS011;6652;48.802;9.190;2023-04-15T04:20:47;19.38;;;6.93;;
13173;SDS011;6652;48.802;9.190;2023-04-15T04:23:14;23.42;;;7.53;;
13173;SDS011;6652;48.802;9.190;2023-04-15T04:25:41;18.73;;;7.20;;
13173;SDS011;6652;48.802;9.190;2023-04-15T04:28:08;17.48;;;7.47;;
13173;SDS011;6652;48.802;9.190;2023-04-15T04:30:35;18.65;;;7.20;;
13173;SDS011;6652;48.802;9.190;2023-04-15T04:33:02;21.27;;;6.88;;
13173;SDS011;6652;48.802;9.190;2023-04-15T04:35:30;24.05;;;6.68;;
13173;SDS011;6652;48.802;9.190;2023-04-15T04:37:59;15.48;;;6.85;;
13173;SDS011;6652;48.802;9.190;2023-04-15T04:40:25;22.00;;;7.95;;
13173;SDS011;6652;48.802;9.190;2023-04-15T04:42:52;21.02;;;7.50;;
13173;SDS011;6652;48.802;9.190;2023-04-15T04:45:19;15.70;;;8.15;;
13173;SDS011;6652;48.802;9.190;2023-04-15T04:47:46;17.83;;;7.70;;
13173;SDS011;6652;48.802;9.190;2023-04-15T04:50:14;21.25;;;8.25;;
13173;SDS011;6652;48.802;9.190;2023-04-15T04:52:42;17.15;;;8.23;;
13173;SDS011;6652;48.802;9.190;2023-04-15T04:55:09;21.90;;;8.07;;
13173;SDS011;6652;48.802;9.190;2023-04-15T04:57:35;17.73;;;8.13;;
13173;SDS011;6652;48.802;9.190;2023-04-15T05:00:04;21.67;;;7.60;;
13173;SDS011;6652;48.802;9.190;2023-04-15T05:02:32;16.67;;;6.97;;
13173;SDS011;6652;48.802;9.190;2023-04-15T05:04:59;20.23;;;6.90;;
13173;SDS011;6652;48.802;9.190;2023-04-15T05:07:26;16.13;;;7.15;;
13173;SDS011;6652;48.802;9.190;2023-04-15T05:09:54;18.38;;;7.47;;
13173;SDS011;6652;48.802;9.190;2023-04-15T05:12:20;17.48;;;8.00;;
13173;SDS011;6652;48.802;9.190;2023-04-15T05:14:47;22.65;;;7.78;;
13173;SDS011;6652;48.802;9.190;2023-04-15T05:17:14;18.90;;;8.02;;
13173;SDS011;6652;48.802;9.190;2023-04-15T05:19:41;15.93;;;7.53;;
13173;SDS011;6652;48.802;9.190;2023-04-15T05:22:08;22.27;;;8.05;;
13173;SDS011;6652;48.802;9.190;2023-04-15T05:24:34;23.88;;;8.35;;
13173;SDS011;6652;48.802;9.190;2023-04-15T05:30:04;20.65;;;7.45;;
13173;SDS011;6652;48.802;9.190;2023-04-15T05:32:32;16.52;;;7.50;;
13173;SDS011;6652;48.802;9.190;2023-04-15T05:34:59;22.70;;;7.22;;
13173;SDS011;6652;48.802;9.190;2023-04-15T05:37:26;23.50;;;7.65;;
13173;SDS011;6652;48.802;9.190;2023-04-15T05:39:53;20.88;;;8.07;;
13173;SDS011;6652;48.802;9.190;2023-04-15T05:42:22;22.55;;;7.38;;
13173;SDS011;6652;48.802;9.190;2023-04-15T05:44:48;15.57;;;7.50;;
13173;SDS011;6652;48.802;9.190;2023-04-15T05:47:15;20.90;;;7.55;;
13173;SDS011;6652;48.802;9.190;2023-04-15T05:49:42;19.50;;;7.57;;
13173;SDS011;6652;48.802;9.190;2023-04-15T05:52:09;20.52;;;8.65;;
13173;SDS011;6652;48.802;9.190;2023-04-15T05:54:36;21.33;;;7.72;;
13173;SDS011;6652;48.802;9.190;2023-04-15T05:57:03;19.48;;;7.13;;
13173;SDS011;6652;48.802;9.190;2023-04-15T05:59:31;21.42;;;7.20;;
13173;SDS011;6652;48.802;9.190;2023-04-15T06:01:58;11.73;;;6.82;;
13173;SDS011;6652;48.802;9.190;2023-04-15T06:04:24;16.88;;;6.55;;
13173;SDS011;6652;48.802;9.190;2023-04-15T06:06:51;16.45;;;6.70;;
13173;SDS011;6652;48.802;9.190;2023-04-15T06:09:18;26.42;;;7.45;;
13173;SDS011;6652;48.802;9.190;2023-04-15T06:11:45;21.55;;;6.28;;
13173;SDS011;6652;48.802;9.190;2023-04-15T06:14:12;16.48;;;6.45;;
13173;SDS011;6652;48.802;9.190;2023-04-15T06:16:40;14.80;;;6.18;;
13173;SDS011;6652;48.802;9.190;2023-04-15T06:19:07;14.57;;;6.20;;
13173;SDS011;6652;48.802;9.190;2023-04-15T06:21:34;11.50;;;5.57;;
13173;SDS011;6652;48.802;9.190;2023-04-15T06:24:01;15.77;;;5.43;;
13173;SDS011;6652;48.802;9.190;2023-04-15T06:26:28;15.18;;;5.60;;
13173;SDS011;6652;48.802;9.190;2023-04-15T06:28:55;13.85;;;5.82;;
13173;SDS011;6652;48.802;9.190;2023-04-15T06:31:22;16.17;;;5.32;;
13173;SDS011;6652;48.802;9.190;2023-04-15T06:33:51;13.05;;;5.40;;
13173;SDS011;6652;48.802;9.190;2023-04-15T06:36:18;14.95;;;5.90;;
13173;SDS011;6652;48.802;9.190;2023-04-15T06:38:45;8.82;;;4.72;;
13173;SDS011;6652;48.802;9.190;2023-04-15T06:41:11;15.32;;;6.82;;
13173;SDS011;6652;48.802;9.190;2023-04-15T06:43:38;9.48;;;4.93;;
13173;SDS011;6652;48.802;9.190;2023-04-15T06:46:06;10.48;;;4.80;;
13173;SDS011;6652;48.802;9.190;2023-04-15T06:48:33;15.45;;;5.55;;
13173;SDS011;6652;48.802;9.190;2023-04-15T06:51:01;11.77;;;5.10;;
13173;SDS011;6652;48.802;9.190;2023-04-15T06:53:28;14.93;;;5.22;;
13173;SDS011;6652;48.802;9.190;2023-04-15T06:55:55;13.27;;;5.40;;
13173;SDS011;6652;48.802;9.190;2023-04-15T06:58:21;14.57;;;5.30;;
13173;SDS011;6652;48.802;9.190;2023-04-15T07:00:48;11.55;;;5.20;;
13173;SDS011;6652;48.802;9.190;2023-04-15T07:03:16;12.63;;;5.30;;
13173;SDS011;6652;48.802;9.190;2023-04-15T07:05:43;11.23;;;4.63;;
13173;SDS011;6652;48.802;9.190;2023-04-15T07:08:13;10.40;;;5.07;;
13173;SDS011;6652;48.802;9.190;2023-04-15T07:10:39;10.10;;;4.43;;
13173;SDS011;6652;48.802;9.190;2023-04-15T07:13:06;17.35;;;4.88;;
13173;SDS011;6652;48.802;9.190;2023-04-15T07:15:33;8.52;;;4.57;;
13173;SDS011;6652;48.802;9.190;2023-04-15T07:18:00;11.38;;;5.20;;
13173;SDS011;6652;48.802;9.190;2023-04-15T07:20:27;12.23;;;4.80;;
13173;SDS011;6652;48.802;9.190;2023-04-15T07:22:54;12.05;;;5.13;;
13173;SDS011;6652;48.802;9.190;2023-04-15T07:25:22;9.73;;;4.72;;
13173;SDS011;6652;48.802;9.190;2023-04-15T07:27:51;13.23;;;4.90;;
13173;SDS011;6652;48.802;9.190;2023-04-15T07:30:19;9.35;;;4.95;;
13173;SDS011;6652;48.802;9.190;2023-04-15T07:32:45;11.52;;;5.35;;
13173;SDS011;6652;48.802;9.190;2023-04-15T07:35:12;12.02;;;4.80;;
13173;SDS011;6652;48.802;9.190;2023-04-15T07:37:39;20.35;;;5.07;;
13173;SDS011;6652;48.802;9.190;2023-04-15T07:40:07;11.95;;;5.10;;
13173;SDS011;6652;48.802;9.190;2023-04-15T07:42:37;10.88;;;5.35;;
13173;SDS011;6652;48.802;9.190;2023-04-15T07:45:04;18.17;;;4.93;;
13173;SDS011;6652;48.802;9.190;2023-04-15T07:47:31;11.07;;;4.78;;
13173;SDS011;6652;48.802;9.190;2023-04-15T07:50:00;17.10;;;5.45;;
13173;SDS011;6652;48.802;9.190;2023-04-15T07:52:27;12.63;;;4.40;;
13173;SDS011;6652;48.802;9.190;2023-04-15T07:54:57;15.93;;;5.07;;
13173;SDS011;6652;48.802;9.190;2023-04-15T07:57:24;15.27;;;5.45;;
13173;SDS011;6652;48.802;9.190;2023-04-15T07:59:52;8.75;;;4.68;;
13173;SDS011;6652;48.802;9.190;2023-04-15T08:02:19;11.07;;;4.57;;
13173;SDS011;6652;48.802;9.190;2023-04-15T08:04:46;20.85;;;4.85;;
13173;SDS011;6652;48.802;9.190;2023-04-15T08:07:14;11.57;;;4.60;;
13173;SDS011;6652;48.802;9.190;2023-04-15T08:09:41;12.20;;;5.25;;
13173;SDS011;6652;48.802;9.190;2023-04-15T08:12:07;11.52;;;4.72;;
13173;SDS011;6652;48.802;9.190;2023-04-15T08:14:37;9.25;;;4.15;;
13173;SDS011;6652;48.802;9.190;2023-04-15T08:17:05;10.20;;;4.32;;
13173;SDS011;6652;48.802;9.190;2023-04-15T08:19:32;11.50;;;5.00;;
13173;SDS011;6652;48.802;9.190;2023-04-15T08:21:59;16.10;;;5.15;;
13173;SDS011;6652;48.802;9.190;2023-04-15T08:24:26;10.55;;;4.97;;
13173;SDS011;6652;48.802;9.190;2023-04-15T08:26:53;8.02;;;4.28;;
13173;SDS011;6652;48.802;9.190;2023-04-15T08:29:20;10.32;;;4.43;;
13173;SDS011;6652;48.802;9.190;2023-04-15T08:31:47;15.27;;;4.75;;
13173;SDS011;6652;48.802;9.190;2023-04-15T08:34:16;11.82;;;5.07;;
13173;SDS011;6652;48.802;9.190;2023-04-15T08:36:43;13.70;;;4.75;;
13173;SDS011;6652;48.802;9.190;2023-04-15T08:39:10;8.95;;;4.63;;
13173;SDS011;6652;48.802;9.190;2023-04-15T08:41:38;10.82;;;4.88;;
13173;SDS011;6652;48.802;9.190;2023-04-15T08:44:08;11.15;;;4.72;;
13173;SDS011;6652;48.802;9.190;2023-04-15T08:46:46;17.10;;;4.72;;
13173;SDS011;6652;48.802;9.190;2023-04-15T08:49:13;22.48;;;5.10;;
13173;SDS011;6652;48.802;9.190;2023-04-15T08:51:43;20.42;;;4.93;;
13173;SDS011;6652;48.802;9.190;2023-04-15T08:54:10;11.02;;;4.25;;
13173;SDS011;6652;48.802;9.190;2023-04-15T08:56:37;19.63;;;4.35;;
13173;SDS011;6652;48.802;9.190;2023-04-15T08:59:04;14.43;;;4.68;;
13173;SDS011;6652;48.802;9.190;2023-04-15T09:01:36;14.32;;;4.22;;
13173;SDS011;6652;48.802;9.190;2023-04-15T09:04:03;19.42;;;5.15;;
13173;SDS011;6652;48.802;9.190;2023-04-15T09:06:33;12.32;;;4.15;;
13173;SDS011;6652;48.802;9.190;2023-04-15T09:09:00;8.05;;;3.30;;
13173;SDS011;6652;48.802;9.190;2023-04-15T09:11:27;11.18;;;4.20;;
13173;SDS011;6652;48.802;9.190;2023-04-15T09:13:55;8.27;;;3.33;;
13173;SDS011;6652;48.802;9.190;2023-04-15T09:16:22;9.07;;;2.92;;
13173;SDS011;6652;48.802;9.190;2023-04-15T09:18:50;10.68;;;2.85;;
13173;SDS011;6652;48.802;9.190;2023-04-15T09:21:17;8.88;;;3.20;;
13173;SDS011;6652;48.802;9.190;2023-04-15T09:23:55;5.30;;;2.08;;
13173;SDS011;6652;48.802;9.190;2023-04-15T09:26:29;6.60;;;2.15;;
13173;SDS011;6652;48.802;9.190;2023-04-15T09:29:01;6.20;;;3.00;;
13173;SDS011;6652;48.802;9.190;2023-04-15T09:33:57;5.53;;;2.22;;
13173;SDS011;6652;48.802;9.190;2023-04-15T09:36:24;7.25;;;2.83;;
13173;SDS011;6652;48.802;9.190;2023-04-15T09:38:55;6.13;;;2.70;;
13173;SDS011;6652;48.802;9.190;2023-04-15T09:41:23;6.95;;;3.28;;
13173;SDS011;6652;48.802;9.190;2023-04-15T09:43:50;11.60;;;3.00;;
13173;SDS011;6652;48.802;9.190;2023-04-15T09:46:18;5.53;;;2.40;;
13173;SDS011;6652;48.802;9.190;2023-04-15T09:48:45;6.88;;;2.80;;
13173;SDS011;6652;48.802;9.190;2023-04-15T09:51:18;8.80;;;2.50;;
13173;SDS011;6652;48.802;9.190;2023-04-15T09:54:08;4.80;;;2.10;;
13173;SDS011;6652;48.802;9.190;2023-04-15T09:56:38;8.15;;;2.78;;
13173;SDS011;6652;48.802;9.190;2023-04-15T09:59:06;15.63;;;2.85;;
13173;SDS011;6652;48.802;9.190;2023-04-15T10:01:58;3.90;;;2.10;;
13173;SDS011;6652;48.802;9.190;2023-04-15T10:04:28;4.75;;;2.20;;
13173;SDS011;6652;48.802;9.190;2023-04-15T10:07:09;8.75;;;2.22;;
13173;SDS011;6652;48.802;9.190;2023-04-15T10:09:42;3.78;;;1.90;;
13173;SDS011;6652;48.802;9.190;2023-04-15T10:12:16;6.82;;;2.50;;
13173;SDS011;6652;48.802;9.190;2023-04-15T10:14:52;7.43;;;2.80;;
13173;SDS011;6652;48.802;9.190;2023-04-15T10:17:50;6.53;;;2.20;;
13173;SDS011;6652;48.802;9.190;2023-04-15T10:20:31;6.22;;;2.10;;
13173;SDS011;6652;48.802;9.190;2023-04-15T10:23:04;8.25;;;2.20;;
13173;SDS011;6652;48.802;9.190;2023-04-15T10:25:35;8.93;;;2.75;;
13173;SDS011;6652;48.802;9.190;2023-04-15T10:28:10;8.40;;;3.20;;
13173;SDS011;6652;48.802;9.190;2023-04-15T10:30:37;6.95;;;2.50;;
13173;SDS011;6652;48.802;9.190;2023-04-15T10:33:07;6.88;;;2.70;;
13173;SDS011;6652;48.802;9.190;2023-04-15T10:35:36;10.13;;;2.55;;
13173;SDS011;6652;48.802;9.190;2023-04-15T10:38:30;6.28;;;2.70;;
13173;SDS011;6652;48.802;9.190;2023-04-15T10:41:12;6.95;;;2.35;;
13173;SDS011;6652;48.802;9.190;2023-04-15T10:43:44;9.05;;;2.20;;
13173;SDS011;6652;48.802;9.190;2023-04-15T10:46:15;5.03;;;1.92;;
13173;SDS011;6652;48.802;9.190;2023-04-15T10:48:47;6.78;;;2.40;;
13173;SDS011;6652;48.802;9.190;2023-04-15T10:51:15;10.68;;;2.70;;
13173;SDS011;6652;48.802;9.190;2023-04-15T10:53:43;5.63;;;2.30;;
13173;SDS011;6652;48.802;9.190;2023-04-15T10:56:11;5.78;;;1.92;;
13173;SDS011;6652;48.802;9.190;2023-04-15T10:58:41;4.80;;;2.38;;
13173;SDS011;6652;48.802;9.190;2023-04-15T11:01:09;5.20;;;2.03;;
13173;SDS011;6652;48.802;9.190;2023-04-15T11:03:36;9.70;;;2.78;;
13173;SDS011;6652;48.802;9.190;2023-04-15T11:06:08;12.13;;;3.00;;
13173;SDS011;6652;48.802;9.190;2023-04-15T11:08:52;5.95;;;2.45;;
13173;SDS011;6652;48.802;9.190;2023-04-15T11:11:24;8.73;;;2.92;;
13173;SDS011;6652;48.802;9.190;2023-04-15T11:14:31;11.07;;;3.08;;
13173;SDS011;6652;48.802;9.190;2023-04-15T11:16:59;10.05;;;2.53;;
13173;SDS011;6652;48.802;9.190;2023-04-15T11:19:26;10.85;;;3.50;;
13173;SDS011;6652;48.802;9.190;2023-04-15T11:22:05;9.80;;;3.33;;
13173;SDS011;6652;48.802;9.190;2023-04-15T11:24:33;9.87;;;3.00;;
13173;SDS011;6652;48.802;9.190;2023-04-15T11:27:02;6.55;;;2.60;;
13173;SDS011;6652;48.802;9.190;2023-04-15T11:29:29;8.88;;;2.75;;
13173;SDS011;6652;48.802;9.190;2023-04-15T11:32:03;5.45;;;2.50;;
13173;SDS011;6652;48.802;9.190;2023-04-15T11:34:34;8.30;;;2.75;;
13173;SDS011;6652;48.802;9.190;2023-04-15T11:37:02;5.68;;;2.50;;
13173;SDS011;6652;48.802;9.190;2023-04-15T11:39:33;10.30;;;2.60;;
13173;SDS011;6652;48.802;9.190;2023-04-15T11:42:11;10.45;;;2.50;;
13173;SDS011;6652;48.802;9.190;2023-04-15T11:44:42;7.30;;;2.67;;
13173;SDS011;6652;48.802;9.190;2023-04-15T11:47:20;10.13;;;2.85;;
13173;SDS011;6652;48.802;9.190;2023-04-15T11:49:47;8.80;;;2.72;;
13173;SDS011;6652;48.802;9.190;2023-04-15T11:52:15;9.35;;;2.65;;
13173;SDS011;6652;48.802;9.190;2023-04-15T11:54:42;6.70;;;2.50;;
13173;SDS011;6652;48.802;9.190;2023-04-15T11:57:10;10.20;;;3.08;;
13173;SDS011;6652;48.802;9.190;2023-04-15T11:59:42;9.43;;;2.80;;
13173;SDS011;6652;48.802;9.190;2023-04-15T12:02:10;6.15;;;2.30;;
13173;SDS011;6652;48.802;9.190;2023-04-15T12:04:38;7.07;;;3.03;;
13173;SDS011;6652;48.802;9.190;2023-04-15T12:07:06;6.40;;;3.28;;
13173;SDS011;6652;48.802;9.190;2023-04-15T12:09:36;8.57;;;2.67;;
13173;SDS011;6652;48.802;9.190;2023-04-15T12:12:03;6.35;;;3.00;;
13173;SDS011;6652;48.802;9.190;2023-04-15T12:14:32;9.00;;;2.95;;
13173;SDS011;6652;48.802;9.190;2023-04-15T12:17:01;7.72;;;2.47;;
13173;SDS011;6652;48.802;9.190;2023-04-15T12:19:29;6.00;;;2.65;;
13173;SDS011;6652;48.802;9.190;2023-04-15T12:22:00;9.30;;;2.92;;
13173;SDS011;6652;48.802;9.190;2023-04-15T12:24:30;5.40;;;2.50;;
13173;SDS011;6652;48.802;9.190;2023-04-15T12:27:01;9.02;;;2.45;;
13173;SDS011;6652;48.802;9.190;2023-04-15T12:29:29;7.70;;;2.72;;
13173;SDS011;6652;48.802;9.190;2023-04-15T12:32:04;13.35;;;4.00;;
13173;SDS011;6652;48.802;9.190;2023-04-15T12:34:34;13.38;;;3.80;;
13173;SDS011;6652;48.802;9.190;2023-04-15T12:37:02;6.57;;;4.07;;
13173;SDS011;6652;48.802;9.190;2023-04-15T12:39:30;8.57;;;3.90;;
13173;SDS011;6652;48.802;9.190;2023-04-15T12:42:01;8.05;;;3.72;;
13173;SDS011;6652;48.802;9.190;2023-04-15T12:44:30;7.22;;;3.72;;
13173;SDS011;6652;48.802;9.190;2023-04-15T12:46:57;5.03;;;2.80;;
13173;SDS011;6652;48.802;9.190;2023-04-15T12:49:25;14.07;;;3.90;;
13173;SDS011;6652;48.802;9.190;2023-04-15T12:51:54;9.07;;;4.40;;
13173;SDS011;6652;48.802;9.190;2023-04-15T12:54:23;6.88;;;3.17;;
13173;SDS011;6652;48.802;9.190;2023-04-15T12:56:50;5.28;;;2.97;;
13173;SDS011;6652;48.802;9.190;2023-04-15T12:59:18;9.18;;;3.40;;
13173;SDS011;6652;48.802;9.190;2023-04-15T13:01:45;4.85;;;2.97;;
13173;SDS011;6652;48.802;9.190;2023-04-15T13:04:12;8.25;;;3.25;;
13173;SDS011;6652;48.802;9.190;2023-04-15T13:06:41;4.05;;;2.45;;
13173;SDS011;6652;48.802;9.190;2023-04-15T13:09:10;9.05;;;4.38;;
13173;SDS011;6652;48.802;9.190;2023-04-15T13:11:37;6.13;;;2.88;;
13173;SDS011;6652;48.802;9.190;2023-04-15T13:14:04;5.07;;;2.63;;
13173;SDS011;6652;48.802;9.190;2023-04-15T13:16:35;6.75;;;2.58;;
13173;SDS011;6652;48.802;9.190;2023-04-15T13:19:05;5.32;;;2.38;;
13173;SDS011;6652;48.802;9.190;2023-04-15T13:21:32;12.15;;;2.83;;
13173;SDS011;6652;48.802;9.190;2023-04-15T13:24:01;6.43;;;2.40;;
13173;SDS011;6652;48.802;9.190;2023-04-15T13:26:29;8.15;;;2.40;;
13173;SDS011;6652;48.802;9.190;2023-04-15T13:28:56;6.10;;;1.77;;
13173;SDS011;6652;48.802;9.190;2023-04-15T13:31:23;4.63;;;1.90;;
13173;SDS011;6652;48.802;9.190;2023-04-15T13:33:50;6.88;;;1.70;;
13173;SDS011;6652;48.802;9.190;2023-04-15T13:36:17;4.05;;;1.60;;
13173;SDS011;6652;48.802;9.190;2023-04-15T13:38:47;3.83;;;1.42;;
13173;SDS011;6652;48.802;9.190;2023-04-15T13:41:16;4.78;;;1.48;;
13173;SDS011;6652;48.802;9.190;2023-04-15T13:43:44;3.63;;;1.40;;
13173;SDS011;6652;48.802;9.190;2023-04-15T13:46:12;6.05;;;1.33;;
13173;SDS011;6652;48.802;9.190;2023-04-15T13:48:38;4.18;;;1.63;;
13173;SDS011;6652;48.802;9.190;2023-04-15T13:51:05;5.47;;;1.08;;
13173;SDS011;6652;48.802;9.190;2023-04-15T13:53:32;2.33;;;1.17;;
13173;SDS011;6652;48.802;9.190;2023-04-15T13:56:00;3.53;;;1.20;;
13173;SDS011;6652;48.802;9.190;2023-04-15T13:58:29;2.22;;;1.15;;
13173;SDS011;6652;48.802;9.190;2023-04-15T14:00:56;2.30;;;0.95;;
13173;SDS011;6652;48.802;9.190;2023-04-15T14:03:23;4.18;;;1.10;;
13173;SDS011;6652;48.802;9.190;2023-04-15T14:05:49;4.90;;;1.33;;
13173;SDS011;6652;48.802;9.190;2023-04-15T14:08:20;3.58;;;1.10;;
13173;SDS011;6652;48.802;9.190;2023-04-15T14:10:47;5.60;;;1.00;;
13173;SDS011;6652;48.802;9.190;2023-04-15T14:13:15;2.42;;;1.05;;
13173;SDS011;6652;48.802;9.190;2023-04-15T14:15:44;3.92;;;1.20;;
13173;SDS011;6652;48.802;9.190;2023-04-15T14:18:11;1.55;;;0.70;;
13173;SDS011;6652;48.802;9.190;2023-04-15T14:20:38;4.20;;;1.17;;
13173;SDS011;6652;48.802;9.190;2023-04-15T14:23:05;3.15;;;1.20;;
13173;SDS011;6652;48.802;9.190;2023-04-15T14:25:32;6.85;;;1.48;;
13173;SDS011;6652;48.802;9.190;2023-04-15T14:27:59;1.95;;;0.75;;
13173;SDS011;6652;48.802;9.190;2023-04-15T14:30:26;4.95;;;1.20;;
13173;SDS011;6652;48.802;9.190;2023-04-15T14:32:54;1.75;;;0.73;;
13173;SDS011;6652;48.802;9.190;2023-04-15T14:35:20;4.55;;;0.90;;
13173;SDS011;6652;48.802;9.190;2023-04-15T14:37:48;1.85;;;0.80;;
13173;SDS011;6652;48.802;9.190;2023-04-15T14:40:15;3.65;;;1.10;;
13173;SDS011;6652;48.802;9.190;2023-04-15T14:42:42;2.63;;;1.10;;
13173;SDS011;6652;48.802;9.190;2023-04-15T14:45:09;3.25;;;1.00;;
13173;SDS011;6652;48.802;9.190;2023-04-15T14:47:36;1.60;;;0.80;;
13173;SDS011;6652;48.802;9.190;2023-04-15T14:50:04;3.03;;;1.00;;
13173;SDS011;6652;48.802;9.190;2023-04-15T14:52:32;1.77;;;1.00;;
13173;SDS011;6652;48.802;9.190;2023-04-15T14:55:03;5.10;;;1.20;;
13173;SDS011;6652;48.802;9.190;2023-04-15T14:57:30;3.95;;;1.10;;
13173;SDS011;6652;48.802;9.190;2023-04-15T14:59:57;2.88;;;1.17;;
13173;SDS011;6652;48.802;9.190;2023-04-15T15:02:24;4.25;;;1.60;;
13173;SDS011;6652;48.802;9.190;2023-04-15T15:04:50;4.35;;;1.88;;